createdAt,value
2023-04-10T00:02:16.559Z,9.65
2023-04-10T00:04:59.429Z,9.77
2023-04-10T00:07:42.339Z,10.95
2023-04-10T00:10:26.412Z,9.85
2023-04-10T00:13:10.478Z,10.13
2023-04-10T00:15:53.102Z,10.20
2023-04-10T00:18:35.828Z,10.43
2023-04-10T00:21:18.716Z,10.80
2023-04-10T00:24:01.373Z,10.88
2023-04-10T00:26:44.289Z,10.60
2023-04-10T00:29:28.285Z,9.60
2023-04-10T00:32:10.950Z,10.40
2023-04-10T00:34:53.637Z,10.55
2023-04-10T00:37:36.538Z,9.80
2023-04-10T00:40:19.196Z,9.52
2023-04-10T00:43:02.111Z,10.00
2023-04-10T00:45:46.165Z,10.77
2023-04-10T00:48:28.912Z,10.40
2023-04-10T00:51:12.550Z,10.13
2023-04-10T00:53:55.722Z,10.77
2023-04-10T00:56:38.741Z,10.75
2023-04-10T00:59:21.399Z,10.40
2023-04-10T01:02:05.775Z,10.63
2023-04-10T01:04:48.859Z,10.10
2023-04-10T01:07:36.425Z,10.13
2023-04-10T01:10:21.519Z,10.38
2023-04-10T01:13:07.756Z,9.85
2023-04-10T01:15:53.284Z,10.68
2023-04-10T01:18:40.829Z,10.00
2023-04-10T01:21:23.614Z,10.40
2023-04-10T01:24:16.167Z,10.43
2023-04-10T01:27:10.855Z,9.93
2023-04-10T01:29:57.613Z,10.15
2023-04-10T01:32:42.358Z,9.65
2023-04-10T01:35:25.407Z,10.73
2023-04-10T01:38:08.832Z,9.63
2023-04-10T01:40:52.480Z,9.90
2023-04-10T01:43:43.176Z,9.82
2023-04-10T01:46:28.232Z,9.60
2023-04-10T01:49:11.328Z,10.25
2023-04-10T01:51:58.202Z,9.82
2023-04-10T01:54:45.490Z,9.45
2023-04-10T01:57:31.979Z,10.30
2023-04-10T02:00:15.849Z,9.90
2023-04-10T02:03:00.027Z,10.20
2023-04-10T02:05:49.947Z,9.05
2023-04-10T02:08:35.466Z,10.85
2023-04-10T02:11:25.303Z,10.48
2023-04-10T02:14:11.770Z,9.88
2023-04-10T02:16:57.235Z,9.90
2023-04-10T02:19:41.157Z,9.73
2023-04-10T02:22:25.544Z,10.25
2023-04-10T02:25:08.705Z,9.68
2023-04-10T02:27:51.557Z,9.85
2023-04-10T02:30:34.491Z,10.27
2023-04-10T02:33:17.149Z,9.93
2023-04-10T02:36:02.498Z,9.65
2023-04-10T02:38:45.200Z,10.52
2023-04-10T02:41:29.059Z,10.15
2023-04-10T02:44:12.022Z,10.02
2023-04-10T02:46:54.748Z,10.60
2023-04-10T02:49:37.721Z,9.77
2023-04-10T02:52:28.649Z,9.85
2023-04-10T02:55:11.736Z,10.27
2023-04-10T02:57:55.738Z,9.68
2023-04-10T03:00:38.408Z,10.50
2023-04-10T03:03:31.905Z,10.20
2023-04-10T03:06:14.599Z,10.32
2023-04-10T03:09:01.423Z,10.43
2023-04-10T03:11:44.092Z,10.57
2023-04-10T03:14:27.431Z,10.48
2023-04-10T03:17:10.494Z,10.60
2023-04-10T03:19:53.141Z,11.07
2023-04-10T03:22:37.001Z,10.20
2023-04-10T03:25:21.773Z,10.38
2023-04-10T03:28:04.653Z,10.93
2023-04-10T03:30:47.512Z,10.52
2023-04-10T03:33:30.347Z,10.88
2023-04-10T03:36:13.027Z,10.82
2023-04-10T03:38:55.765Z,10.20
2023-04-10T03:41:39.779Z,10.00
2023-04-10T03:44:23.067Z,10.18
2023-04-10T03:47:06.661Z,10.63
2023-04-10T03:49:49.617Z,10.48
2023-04-10T03:52:32.290Z,10.32
2023-04-10T03:55:18.947Z,10.25
2023-04-10T03:58:03.361Z,9.57
2023-04-10T04:00:46.801Z,11.10
2023-04-10T04:03:44.910Z,10.60
2023-04-10T04:06:46.208Z,10.10
2023-04-10T04:09:42.227Z,10.90
2023-04-10T04:12:45.136Z,10.40
2023-04-10T04:15:51.998Z,10.63
2023-04-10T04:18:54.475Z,9.90
2023-04-10T04:21:45.469Z,10.02
2023-04-10T04:24:35.862Z,9.70
2023-04-10T04:27:31.480Z,10.27
2023-04-10T04:30:36.982Z,10.52
2023-04-10T04:33:41.040Z,10.32
2023-04-10T04:36:42.212Z,10.02
2023-04-10T04:39:30.665Z,10.60
2023-04-10T04:42:39.628Z,11.23
2023-04-10T04:45:34.128Z,9.98
2023-04-10T04:48:16.795Z,10.32
2023-04-10T04:51:28.891Z,10.93
2023-04-10T04:54:37.796Z,10.13
2023-04-10T04:57:43.572Z,10.02
2023-04-10T05:00:46.302Z,10.30
2023-04-10T05:04:03.922Z,10.25
2023-04-10T05:07:14.128Z,10.93
2023-04-10T05:10:02.367Z,10.40
2023-04-10T05:13:01.817Z,9.82
2023-04-10T05:16:01.878Z,10.43
2023-04-10T05:18:55.968Z,10.68
2023-04-10T05:22:09.764Z,10.02
2023-04-10T05:25:23.143Z,10.80
2023-04-10T05:28:24.083Z,10.70
2023-04-10T05:31:16.399Z,10.40
2023-04-10T05:34:10.654Z,10.63
2023-04-10T05:37:19.599Z,10.40
2023-04-10T05:40:12.281Z,10.38
2023-04-10T05:43:12.860Z,10.38
2023-04-10T05:46:24.818Z,11.00
2023-04-10T05:49:21.224Z,9.88
2023-04-10T05:52:33.036Z,11.00
2023-04-10T05:55:27.761Z,10.38
2023-04-10T05:58:24.452Z,10.30
2023-04-10T06:01:26.122Z,11.65
2023-04-10T06:04:14.344Z,10.00
2023-04-10T06:06:58.169Z,9.38
2023-04-10T06:09:40.865Z,10.43
2023-04-10T06:12:25.380Z,10.50
2023-04-10T06:15:10.248Z,11.23
2023-04-10T06:17:53.980Z,10.23
2023-04-10T06:20:36.627Z,11.35
2023-04-10T06:23:19.296Z,10.55
2023-04-10T06:26:03.392Z,10.45
2023-04-10T06:28:46.370Z,11.07
2023-04-10T06:31:35.054Z,10.63
2023-04-10T06:34:18.234Z,10.30
2023-04-10T06:37:27.895Z,10.13
2023-04-10T06:40:11.337Z,10.70
2023-04-10T06:42:53.940Z,10.57
2023-04-10T06:45:43.346Z,11.05
2023-04-10T06:48:27.530Z,10.73
2023-04-10T06:51:10.405Z,10.07
2023-04-10T06:53:53.000Z,10.23
2023-04-10T06:56:35.606Z,10.52
2023-04-10T06:59:18.191Z,10.65
2023-04-10T07:02:01.131Z,10.68
2023-04-10T07:04:45.613Z,11.27
2023-04-10T07:07:29.244Z,10.65
2023-04-10T07:10:12.997Z,11.00
2023-04-10T07:12:57.238Z,10.60
2023-04-10T07:15:39.900Z,11.02
2023-04-10T07:18:22.579Z,10.73
2023-04-10T07:21:11.295Z,10.93
2023-04-10T07:23:55.143Z,11.15
2023-04-10T07:26:37.746Z,10.77
2023-04-10T07:29:21.334Z,10.80
2023-04-10T07:32:04.253Z,10.20
2023-04-10T07:34:47.384Z,11.00
2023-04-10T07:37:31.347Z,10.30
2023-04-10T07:40:14.021Z,10.20
2023-04-10T07:42:56.610Z,10.07
2023-04-10T07:45:39.548Z,10.60
2023-04-10T07:48:22.151Z,10.35
2023-04-10T07:51:05.526Z,10.73
2023-04-10T07:53:49.512Z,10.38
2023-04-10T07:56:32.523Z,10.15
2023-04-10T07:59:15.386Z,10.43
2023-04-10T08:01:58.090Z,10.05
2023-04-10T08:04:42.824Z,9.70
2023-04-10T08:07:25.680Z,9.43
2023-04-10T08:10:10.398Z,9.60
2023-04-10T08:12:53.029Z,10.10
2023-04-10T08:15:35.674Z,10.02
2023-04-10T08:18:18.331Z,9.45
2023-04-10T08:21:00.955Z,10.18
2023-04-10T08:23:43.634Z,9.93
2023-04-10T08:26:28.373Z,9.40
2023-04-10T08:29:10.998Z,9.90
2023-04-10T08:31:54.462Z,9.45
2023-04-10T08:34:37.095Z,9.57
2023-04-10T08:37:21.508Z,9.25
2023-04-10T08:40:04.335Z,10.15
2023-04-10T08:42:48.303Z,9.80
2023-04-10T08:45:31.045Z,9.57
2023-04-10T08:48:14.868Z,9.15
2023-04-10T08:51:00.738Z,9.43
2023-04-10T08:53:45.311Z,10.18
2023-04-10T08:56:28.038Z,9.18
2023-04-10T08:59:12.010Z,9.38
2023-04-10T09:01:54.849Z,9.60
2023-04-10T09:04:37.622Z,10.10
2023-04-10T09:07:20.292Z,8.90
2023-04-10T09:10:03.282Z,8.35
2023-04-10T09:12:47.082Z,9.10
2023-04-10T09:15:31.012Z,8.70
2023-04-10T09:18:13.648Z,8.93
2023-04-10T09:21:07.095Z,8.80
2023-04-10T09:23:50.228Z,8.98
2023-04-10T09:26:33.648Z,9.18
2023-04-10T09:29:16.950Z,8.02
2023-04-10T09:32:00.907Z,7.82
2023-04-10T09:34:53.863Z,8.38
2023-04-10T09:37:36.956Z,7.63
2023-04-10T09:40:24.399Z,8.25
2023-04-10T09:43:17.953Z,8.73
2023-04-10T09:46:00.649Z,7.80
2023-04-10T09:48:55.433Z,7.88
2023-04-10T09:51:39.308Z,7.57
2023-04-10T09:54:36.138Z,7.72
2023-04-10T09:57:20.086Z,8.45
2023-04-10T10:00:04.333Z,7.95
2023-04-10T10:02:49.647Z,6.90
2023-04-10T10:05:33.710Z,7.82
2023-04-10T10:08:16.663Z,7.68
2023-04-10T10:11:00.911Z,8.10
2023-04-10T10:13:48.200Z,7.28
2023-04-10T10:16:34.097Z,7.53
2023-04-10T10:19:20.505Z,7.07
2023-04-10T10:22:05.434Z,6.93
2023-04-10T10:24:48.628Z,7.35
2023-04-10T10:27:32.529Z,6.93
2023-04-10T10:30:28.053Z,7.68
2023-04-10T10:33:12.457Z,6.30
2023-04-10T10:35:55.381Z,6.63
2023-04-10T10:38:41.268Z,6.70
2023-04-10T10:41:26.773Z,6.32
2023-04-10T10:44:10.074Z,6.82
2023-04-10T10:46:59.302Z,5.95
2023-04-10T10:49:55.382Z,6.47
2023-04-10T10:52:38.794Z,6.50
2023-04-10T10:55:34.787Z,5.85
2023-04-10T10:58:18.522Z,6.05
2023-04-10T11:01:19.141Z,5.93
2023-04-10T11:04:02.302Z,6.10
2023-04-10T11:06:54.904Z,6.50
2023-04-10T11:09:51.169Z,6.00
2023-04-10T11:12:55.218Z,5.55
2023-04-10T11:15:37.919Z,5.47
2023-04-10T11:18:20.883Z,5.03
2023-04-10T11:21:10.555Z,5.07
2023-04-10T11:24:04.014Z,5.50
2023-04-10T11:26:47.193Z,4.93
2023-04-10T11:29:36.941Z,5.47
2023-04-10T11:32:19.633Z,5.20
2023-04-10T11:35:04.820Z,4.95
2023-04-10T11:37:47.948Z,4.88
2023-04-10T11:40:31.363Z,5.10
2023-04-10T11:43:15.071Z,4.82
2023-04-10T11:46:15.588Z,4.85
2023-04-10T11:49:00.492Z,4.72
2023-04-10T11:51:46.177Z,5.18
2023-04-10T11:54:29.294Z,4.80
2023-04-10T11:57:12.949Z,4.90
2023-04-10T11:59:55.630Z,5.13
2023-04-10T12:02:51.089Z,4.60
2023-04-10T12:05:47.306Z,4.85
2023-04-10T12:08:33.367Z,4.88
2023-04-10T12:11:18.544Z,4.80
2023-04-10T12:14:01.143Z,4.50
2023-04-10T12:16:43.991Z,4.53
2023-04-10T12:19:26.651Z,4.30
2023-04-10T12:22:12.937Z,4.90
2023-04-10T12:24:55.557Z,4.30
2023-04-10T12:27:38.609Z,4.38
2023-04-10T12:30:21.217Z,3.97
2023-04-10T12:33:07.625Z,3.75
2023-04-10T12:35:50.559Z,4.22
2023-04-10T12:38:38.857Z,3.90
2023-04-10T12:41:25.671Z,3.70
2023-04-10T12:44:09.249Z,3.88
2023-04-10T12:46:51.909Z,3.67
2023-04-10T12:49:34.511Z,3.30
2023-04-10T12:52:23.309Z,3.90
2023-04-10T12:55:12.138Z,4.00
2023-04-10T12:57:54.985Z,3.20
2023-04-10T13:00:37.671Z,2.90
2023-04-10T13:03:20.440Z,3.50
2023-04-10T13:06:03.306Z,3.22
2023-04-10T13:08:46.680Z,3.40
2023-04-10T13:11:30.699Z,3.10
2023-04-10T13:14:13.718Z,2.80
2023-04-10T13:16:56.383Z,3.17
2023-04-10T13:19:39.154Z,2.85
2023-04-10T13:22:22.264Z,2.78
2023-04-10T13:25:05.544Z,2.95
2023-04-10T13:27:49.645Z,3.35
2023-04-10T13:30:33.082Z,2.85
2023-04-10T13:33:15.699Z,2.58
2023-04-10T13:35:58.411Z,2.90
2023-04-10T13:38:41.170Z,2.65
2023-04-10T13:41:23.762Z,3.22
2023-04-10T13:44:07.777Z,3.17
2023-04-10T13:46:52.069Z,3.10
2023-04-10T13:49:34.908Z,2.65
2023-04-10T13:52:17.561Z,3.05
2023-04-10T13:55:00.234Z,3.03
2023-04-10T13:57:43.230Z,3.10
2023-04-10T14:00:27.766Z,2.72
2023-04-10T14:03:12.255Z,2.80
2023-04-10T14:05:55.385Z,3.00
2023-04-10T14:08:37.967Z,3.15
2023-04-10T14:11:21.917Z,3.08
2023-04-10T14:14:04.568Z,3.15
2023-04-10T14:16:48.639Z,3.42
2023-04-10T14:19:31.442Z,3.67
2023-04-10T14:22:14.092Z,3.72
2023-04-10T14:25:09.249Z,3.35
2023-04-10T14:27:55.456Z,3.40
2023-04-10T14:30:38.019Z,4.07
2023-04-10T14:33:22.090Z,3.72
2023-04-10T14:36:05.133Z,4.05
2023-04-10T14:38:47.826Z,3.70
2023-04-10T14:41:30.407Z,4.35
2023-04-10T14:44:13.054Z,3.85
2023-04-10T14:46:55.688Z,4.25
2023-04-10T14:49:40.216Z,4.03
2023-04-10T14:52:22.826Z,4.25
2023-04-10T14:55:05.825Z,4.07
2023-04-10T14:57:48.453Z,4.05
2023-04-10T15:00:31.309Z,4.38
2023-04-10T15:03:14.042Z,3.88
2023-04-10T15:06:01.086Z,4.72
2023-04-10T15:08:43.687Z,4.80
2023-04-10T15:11:26.406Z,4.60
2023-04-10T15:14:08.958Z,4.60
2023-04-10T15:16:53.491Z,4.43
2023-04-10T15:19:36.691Z,4.10
2023-04-10T15:22:20.807Z,4.05
2023-04-10T15:25:03.518Z,3.80
2023-04-10T15:27:46.187Z,3.67
2023-04-10T15:30:28.932Z,4.35
2023-04-10T15:33:11.627Z,3.97
2023-04-10T15:35:54.229Z,3.92
2023-04-10T15:38:38.339Z,4.20
2023-04-10T15:41:20.967Z,4.00
2023-04-10T15:44:03.655Z,4.22
2023-04-10T15:46:47.121Z,4.38
2023-04-10T15:49:37.886Z,4.25
2023-04-10T15:52:21.386Z,3.67
2023-04-10T15:55:06.115Z,3.45
2023-04-10T15:57:48.761Z,3.20
2023-04-10T16:00:31.421Z,3.60
2023-04-10T16:03:14.178Z,2.92
2023-04-10T16:05:58.290Z,3.03
2023-04-10T16:08:41.018Z,3.38
2023-04-10T16:11:25.144Z,2.92
2023-04-10T16:14:07.778Z,2.85
2023-04-10T16:16:50.953Z,3.10
2023-04-10T16:19:33.556Z,2.80
2023-04-10T16:22:16.174Z,3.17
2023-04-10T16:24:58.842Z,3.80
2023-04-10T16:27:42.977Z,3.20
2023-04-10T16:30:25.828Z,3.33
2023-04-10T16:33:08.509Z,3.70
2023-04-10T16:35:51.150Z,3.63
2023-04-10T16:38:34.647Z,4.07
2023-04-10T16:41:18.353Z,3.72
2023-04-10T16:44:03.162Z,3.95
2023-04-10T16:46:45.887Z,4.22
2023-04-10T16:49:28.552Z,4.40
2023-04-10T16:52:11.207Z,4.30
2023-04-10T16:54:53.920Z,4.68
2023-04-10T16:57:36.589Z,4.68
2023-04-10T17:00:20.896Z,4.28
2023-04-10T17:03:03.692Z,4.32
2023-04-10T17:05:46.418Z,4.40
2023-04-10T17:08:29.040Z,4.00
2023-04-10T17:11:12.508Z,4.53
2023-04-10T17:13:55.222Z,4.53
2023-04-10T17:16:39.230Z,4.07
2023-04-10T17:19:21.853Z,4.00
2023-04-10T17:22:04.798Z,4.05
2023-04-10T17:24:47.426Z,3.70
2023-04-10T17:27:30.115Z,3.67
2023-04-10T17:30:13.099Z,3.78
2023-04-10T17:32:57.110Z,3.83
2023-04-10T17:35:39.762Z,3.95
2023-04-10T17:38:22.472Z,3.85
2023-04-10T17:41:05.326Z,3.72
2023-04-10T17:43:47.971Z,3.80
2023-04-10T17:46:30.600Z,4.15
2023-04-10T17:49:14.693Z,4.10
2023-04-10T17:51:57.330Z,4.13
2023-04-10T17:54:39.963Z,3.97
2023-04-10T17:57:22.595Z,4.20
2023-04-10T18:00:08.060Z,4.15
2023-04-10T18:02:50.747Z,4.25
2023-04-10T18:05:36.693Z,4.03
2023-04-10T18:08:19.301Z,3.60
2023-04-10T18:11:01.917Z,3.85
2023-04-10T18:13:44.518Z,3.85
2023-04-10T18:16:27.293Z,3.78
2023-04-10T18:19:09.993Z,3.92
2023-04-10T18:21:54.012Z,3.97
2023-04-10T18:24:36.593Z,3.83
2023-04-10T18:27:19.242Z,4.13
2023-04-10T18:30:01.871Z,3.85
2023-04-10T18:32:44.565Z,3.90
2023-04-10T18:35:27.239Z,3.83
2023-04-10T18:38:11.206Z,4.10
2023-04-10T18:40:55.443Z,4.38
2023-04-10T18:43:38.393Z,4.20
2023-04-10T18:46:21.311Z,4.53
2023-04-10T18:49:04.260Z,4.07
2023-04-10T18:51:46.989Z,3.60
2023-04-10T18:54:31.546Z,4.30
2023-04-10T18:57:14.344Z,4.05
2023-04-10T18:59:57.828Z,4.60
2023-04-10T19:02:40.633Z,4.25
2023-04-10T19:05:23.377Z,4.22
2023-04-10T19:08:06.024Z,4.20
2023-04-10T19:10:50.337Z,4.60
2023-04-10T19:13:33.307Z,4.40
2023-04-10T19:16:19.262Z,4.50
2023-04-10T19:19:02.481Z,4.22
2023-04-10T19:21:45.222Z,4.18
2023-04-10T19:24:28.068Z,4.45
2023-04-10T19:27:12.193Z,4.65
2023-04-10T19:29:54.811Z,4.63
2023-04-10T19:32:37.570Z,4.38
2023-04-10T19:35:21.852Z,4.85
2023-04-10T19:38:04.550Z,4.65
2023-04-10T19:40:47.217Z,5.10
2023-04-10T19:43:31.353Z,4.45
2023-04-10T19:46:17.605Z,4.72
2023-04-10T19:49:00.408Z,4.80
2023-04-10T19:51:43.023Z,4.25
2023-04-10T19:54:25.870Z,4.75
2023-04-10T19:57:08.524Z,5.13
2023-04-10T19:59:52.532Z,4.97
2023-04-10T20:02:35.299Z,4.70
2023-04-10T20:05:18.096Z,4.50
2023-04-10T20:08:00.822Z,5.07
2023-04-10T20:10:43.495Z,4.78
2023-04-10T20:13:26.436Z,4.95
2023-04-10T20:16:10.746Z,4.75
2023-04-10T20:18:55.994Z,4.90
2023-04-10T20:21:38.811Z,4.65
2023-04-10T20:24:21.444Z,4.70
2023-04-10T20:27:04.215Z,5.00
2023-04-10T20:29:46.830Z,4.80
2023-04-10T20:32:30.875Z,4.32
2023-04-10T20:35:14.517Z,4.90
2023-04-10T20:37:57.657Z,4.70
2023-04-10T20:40:40.252Z,5.22
2023-04-10T20:43:22.908Z,4.63
2023-04-10T20:46:06.602Z,4.57
2023-04-10T20:48:50.716Z,4.63
2023-04-10T20:51:33.669Z,4.68
2023-04-10T20:54:18.851Z,4.28
2023-04-10T20:57:01.965Z,3.92
2023-04-10T20:59:46.176Z,4.72
2023-04-10T21:02:29.087Z,4.18
2023-04-10T21:05:13.370Z,3.95
2023-04-10T21:07:56.160Z,4.57
2023-04-10T21:10:43.956Z,4.07
2023-04-10T21:13:26.919Z,3.83
2023-04-10T21:16:09.943Z,4.70
2023-04-10T21:18:53.863Z,4.15
2023-04-10T21:21:38.437Z,4.15
2023-04-10T21:24:22.319Z,4.15
2023-04-10T21:27:05.234Z,3.90
2023-04-10T21:29:47.972Z,4.28
2023-04-10T21:32:30.698Z,4.00
2023-04-10T21:35:13.413Z,4.22
2023-04-10T21:38:01.813Z,3.75
2023-04-10T21:40:50.793Z,3.83
2023-04-10T21:43:35.182Z,3.80
2023-04-10T21:46:17.825Z,3.72
2023-04-10T21:49:00.517Z,3.75
2023-04-10T21:51:43.160Z,3.40
2023-04-10T21:54:27.236Z,2.95
2023-04-10T21:57:09.943Z,3.00
2023-04-10T21:59:52.600Z,3.22
2023-04-10T22:02:35.398Z,2.85
2023-04-10T22:05:18.277Z,2.90
2023-04-10T22:08:00.884Z,2.50
2023-04-10T22:10:47.207Z,2.38
2023-04-10T22:13:31.102Z,2.25
2023-04-10T22:16:14.077Z,2.25
2023-04-10T22:18:56.778Z,2.10
2023-04-10T22:21:39.446Z,2.33
2023-04-10T22:24:22.012Z,2.17
2023-04-10T22:27:06.013Z,2.35
2023-04-10T22:29:59.971Z,2.28
2023-04-10T22:32:45.788Z,2.20
2023-04-10T22:35:28.552Z,2.30
2023-04-10T22:38:11.179Z,2.08
2023-04-10T22:40:54.760Z,2.38
2023-04-10T22:43:38.796Z,2.40
2023-04-10T22:46:21.445Z,1.92
2023-04-10T22:49:04.198Z,2.47
2023-04-10T22:51:46.815Z,1.90
2023-04-10T22:54:29.436Z,2.35
2023-04-10T22:57:11.995Z,2.20
2023-04-10T22:59:56.007Z,2.50
2023-04-10T23:02:38.785Z,2.47
2023-04-10T23:05:21.457Z,2.17
2023-04-10T23:08:04.038Z,2.28
2023-04-10T23:10:46.730Z,2.08
2023-04-10T23:13:29.371Z,2.40
2023-04-10T23:16:13.434Z,2.00
2023-04-10T23:18:56.261Z,2.20
2023-04-10T23:21:39.034Z,2.20
2023-04-10T23:24:21.632Z,2.42
2023-04-10T23:27:06.748Z,2.45
2023-04-10T23:29:49.451Z,2.25
2023-04-10T23:32:33.700Z,2.20
2023-04-10T23:35:16.307Z,1.65
2023-04-10T23:37:58.914Z,2.45
2023-04-10T23:40:41.468Z,1.80
2023-04-10T23:43:24.377Z,2.13
2023-04-10T23:46:07.333Z,2.17
2023-04-10T23:48:53.594Z,1.92
2023-04-10T23:51:36.363Z,2.08
2023-04-10T23:54:18.988Z,1.80
2023-04-10T23:57:01.597Z,1.88
2023-04-10T23:59:44.201Z,2.00
